sensor_id;sensor_type;location;lat;lon;timestamp;P1;durP1;ratioP1;P2;durP2;ratioP2
24145;SDS011;12308;50.948;4.706;2022-09-24T00:01:11;60.65;;;39.95;;
24145;SDS011;12308;50.948;4.706;2022-09-24T00:03:40;62.55;;;39.30;;
24145;SDS011;12308;50.948;4.706;2022-09-24T00:06:07;62.95;;;39.53;;
24145;SDS011;12308;50.948;4.706;2022-09-24T00:08:33;62.45;;;39.92;;
24145;SDS011;12308;50.948;4.706;2022-09-24T00:11:01;61.75;;;39.17;;
24145;SDS011;12308;50.948;4.706;2022-09-24T00:13:29;59.38;;;39.22;;
24145;SDS011;12308;50.948;4.706;2022-09-24T00:15:55;63.05;;;39.65;;
24145;SDS011;12308;50.948;4.706;2022-09-24T00:18:25;64.03;;;40.80;;
24145;SDS011;12308;50.948;4.706;2022-09-24T00:20:50;62.90;;;40.58;;
24145;SDS011;12308;50.948;4.706;2022-09-24T00:23:16;58.95;;;39.10;;
24145;SDS011;12308;50.948;4.706;2022-09-24T00:25:45;61.33;;;41.22;;
24145;SDS011;12308;50.948;4.706;2022-09-24T00:28:30;58.30;;;39.60;;
24145;SDS011;12308;50.948;4.706;2022-09-24T00:30:57;61.67;;;39.00;;
24145;SDS011;12308;50.948;4.706;2022-09-24T00:33:27;63.50;;;38.92;;
24145;SDS011;12308;50.948;4.706;2022-09-24T00:36:03;64.55;;;40.70;;
24145;SDS011;12308;50.948;4.706;2022-09-24T00:38:30;61.63;;;40.55;;
24145;SDS011;12308;50.948;4.706;2022-09-24T00:40:57;62.38;;;38.97;;
24145;SDS011;12308;50.948;4.706;2022-09-24T00:45:50;63.38;;;39.13;;
24145;SDS011;12308;50.948;4.706;2022-09-24T00:48:17;61.38;;;38.03;;
24145;SDS011;12308;50.948;4.706;2022-09-24T00:50:43;60.70;;;39.17;;
24145;SDS011;12308;50.948;4.706;2022-09-24T00:53:10;58.38;;;39.28;;
24145;SDS011;12308;50.948;4.706;2022-09-24T00:55:41;62.35;;;39.72;;
24145;SDS011;12308;50.948;4.706;2022-09-24T00:58:10;60.03;;;41.22;;
24145;SDS011;12308;50.948;4.706;2022-09-24T01:00:39;61.58;;;41.25;;
24145;SDS011;12308;50.948;4.706;2022-09-24T01:03:13;64.47;;;39.97;;
24145;SDS011;12308;50.948;4.706;2022-09-24T01:05:41;60.35;;;37.17;;
24145;SDS011;12308;50.948;4.706;2022-09-24T01:08:09;62.20;;;36.72;;
24145;SDS011;12308;50.948;4.706;2022-09-24T01:10:47;58.08;;;36.38;;
24145;SDS011;12308;50.948;4.706;2022-09-24T01:13:55;52.13;;;33.03;;
24145;SDS011;12308;50.948;4.706;2022-09-24T01:30:25;49.40;;;29.95;;
24145;SDS011;12308;50.948;4.706;2022-09-24T01:32:58;44.95;;;29.88;;
24145;SDS011;12308;50.948;4.706;2022-09-24T01:35:28;56.15;;;31.67;;
24145;SDS011;12308;50.948;4.706;2022-09-24T01:38:01;51.72;;;31.63;;
24145;SDS011;12308;50.948;4.706;2022-09-24T01:40:38;49.15;;;30.40;;
24145;SDS011;12308;50.948;4.706;2022-09-24T01:43:06;51.28;;;30.98;;
24145;SDS011;12308;50.948;4.706;2022-09-24T01:45:34;52.50;;;30.42;;
24145;SDS011;12308;50.948;4.706;2022-09-24T01:48:03;48.20;;;31.83;;
24145;SDS011;12308;50.948;4.706;2022-09-24T01:50:30;49.75;;;30.58;;
24145;SDS011;12308;50.948;4.706;2022-09-24T01:53:02;44.97;;;28.98;;
24145;SDS011;12308;50.948;4.706;2022-09-24T01:55:34;46.13;;;30.02;;
24145;SDS011;12308;50.948;4.706;2022-09-24T02:01:22;50.05;;;29.48;;
24145;SDS011;12308;50.948;4.706;2022-09-24T02:03:59;52.22;;;29.75;;
24145;SDS011;12308;50.948;4.706;2022-09-24T02:06:31;45.88;;;29.75;;
24145;SDS011;12308;50.948;4.706;2022-09-24T02:09:01;49.88;;;29.08;;
24145;SDS011;12308;50.948;4.706;2022-09-24T02:11:27;46.08;;;28.77;;
24145;SDS011;12308;50.948;4.706;2022-09-24T02:14:02;51.20;;;29.90;;
24145;SDS011;12308;50.948;4.706;2022-09-24T02:16:33;58.95;;;30.05;;
24145;SDS011;12308;50.948;4.706;2022-09-24T02:19:04;49.13;;;30.75;;
24145;SDS011;12308;50.948;4.706;2022-09-24T02:21:35;52.22;;;30.38;;
24145;SDS011;12308;50.948;4.706;2022-09-24T02:24:07;57.15;;;32.25;;
24145;SDS011;12308;50.948;4.706;2022-09-24T02:26:37;53.30;;;32.10;;
24145;SDS011;12308;50.948;4.706;2022-09-24T02:29:03;54.53;;;30.85;;
24145;SDS011;12308;50.948;4.706;2022-09-24T02:31:30;51.85;;;32.42;;
24145;SDS011;12308;50.948;4.706;2022-09-24T02:34:02;54.58;;;33.67;;
24145;SDS011;12308;50.948;4.706;2022-09-24T02:36:54;58.00;;;33.42;;
24145;SDS011;12308;50.948;4.706;2022-09-24T02:39:26;54.90;;;31.67;;
24145;SDS011;12308;50.948;4.706;2022-09-24T02:41:52;56.92;;;33.25;;
24145;SDS011;12308;50.948;4.706;2022-09-24T02:44:18;57.42;;;32.92;;
24145;SDS011;12308;50.948;4.706;2022-09-24T02:46:45;56.85;;;33.53;;
24145;SDS011;12308;50.948;4.706;2022-09-24T02:49:11;60.22;;;33.25;;
24145;SDS011;12308;50.948;4.706;2022-09-24T02:51:38;57.88;;;33.08;;
24145;SDS011;12308;50.948;4.706;2022-09-24T02:54:05;61.95;;;32.83;;
24145;SDS011;12308;50.948;4.706;2022-09-24T02:56:31;59.28;;;33.17;;
24145;SDS011;12308;50.948;4.706;2022-09-24T02:58:57;55.03;;;33.70;;
24145;SDS011;12308;50.948;4.706;2022-09-24T03:01:24;57.90;;;33.05;;
24145;SDS011;12308;50.948;4.706;2022-09-24T03:03:50;67.70;;;33.72;;
24145;SDS011;12308;50.948;4.706;2022-09-24T03:06:16;58.78;;;33.88;;
24145;SDS011;12308;50.948;4.706;2022-09-24T03:08:42;62.97;;;35.30;;
24145;SDS011;12308;50.948;4.706;2022-09-24T03:11:09;62.05;;;34.17;;
24145;SDS011;12308;50.948;4.706;2022-09-24T03:13:35;65.68;;;35.63;;
24145;SDS011;12308;50.948;4.706;2022-09-24T03:16:02;65.95;;;36.47;;
24145;SDS011;12308;50.948;4.706;2022-09-24T03:18:28;63.58;;;35.95;;
24145;SDS011;12308;50.948;4.706;2022-09-24T03:20:58;68.28;;;35.85;;
24145;SDS011;12308;50.948;4.706;2022-09-24T03:23:25;64.10;;;35.25;;
24145;SDS011;12308;50.948;4.706;2022-09-24T03:25:51;61.90;;;35.65;;
24145;SDS011;12308;50.948;4.706;2022-09-24T03:28:17;65.55;;;35.28;;
24145;SDS011;12308;50.948;4.706;2022-09-24T03:30:43;70.80;;;37.22;;
24145;SDS011;12308;50.948;4.706;2022-09-24T03:33:31;60.97;;;34.78;;
24145;SDS011;12308;50.948;4.706;2022-09-24T03:36:08;61.25;;;35.67;;
24145;SDS011;12308;50.948;4.706;2022-09-24T03:38:40;65.85;;;37.35;;
24145;SDS011;12308;50.948;4.706;2022-09-24T03:41:07;65.63;;;36.08;;
24145;SDS011;12308;50.948;4.706;2022-09-24T03:43:34;66.10;;;35.83;;
24145;SDS011;12308;50.948;4.706;2022-09-24T03:46:01;66.57;;;35.85;;
24145;SDS011;12308;50.948;4.706;2022-09-24T03:48:27;65.50;;;35.72;;
24145;SDS011;12308;50.948;4.706;2022-09-24T03:50:54;63.55;;;35.60;;
24145;SDS011;12308;50.948;4.706;2022-09-24T03:53:20;62.53;;;35.08;;
24145;SDS011;12308;50.948;4.706;2022-09-24T03:55:55;67.18;;;35.78;;
24145;SDS011;12308;50.948;4.706;2022-09-24T03:58:22;62.05;;;35.08;;
24145;SDS011;12308;50.948;4.706;2022-09-24T04:00:50;62.80;;;34.88;;
24145;SDS011;12308;50.948;4.706;2022-09-24T04:03:17;59.33;;;33.70;;
24145;SDS011;12308;50.948;4.706;2022-09-24T04:05:43;63.67;;;34.72;;
24145;SDS011;12308;50.948;4.706;2022-09-24T04:08:08;66.13;;;34.97;;
24145;SDS011;12308;50.948;4.706;2022-09-24T04:10:34;64.15;;;35.40;;
24145;SDS011;12308;50.948;4.706;2022-09-24T04:12:59;59.88;;;33.92;;
24145;SDS011;12308;50.948;4.706;2022-09-24T04:15:25;65.65;;;34.75;;
24145;SDS011;12308;50.948;4.706;2022-09-24T04:17:52;64.88;;;34.80;;
24145;SDS011;12308;50.948;4.706;2022-09-24T04:20:19;67.85;;;35.45;;
24145;SDS011;12308;50.948;4.706;2022-09-24T04:22:49;73.13;;;35.35;;
24145;SDS011;12308;50.948;4.706;2022-09-24T04:25:16;68.40;;;34.90;;
24145;SDS011;12308;50.948;4.706;2022-09-24T04:27:46;64.00;;;34.25;;
24145;SDS011;12308;50.948;4.706;2022-09-24T04:30:16;61.40;;;34.80;;
24145;SDS011;12308;50.948;4.706;2022-09-24T04:32:42;62.88;;;35.10;;
24145;SDS011;12308;50.948;4.706;2022-09-24T04:35:08;62.15;;;33.83;;
24145;SDS011;12308;50.948;4.706;2022-09-24T04:37:34;68.82;;;36.45;;
24145;SDS011;12308;50.948;4.706;2022-09-24T04:40:01;64.40;;;35.20;;
24145;SDS011;12308;50.948;4.706;2022-09-24T04:42:29;63.08;;;34.83;;
24145;SDS011;12308;50.948;4.706;2022-09-24T04:44:55;69.82;;;36.42;;
24145;SDS011;12308;50.948;4.706;2022-09-24T04:47:20;65.07;;;35.60;;
24145;SDS011;12308;50.948;4.706;2022-09-24T04:49:48;68.70;;;35.65;;
24145;SDS011;12308;50.948;4.706;2022-09-24T04:52:14;67.05;;;36.58;;
24145;SDS011;12308;50.948;4.706;2022-09-24T04:54:40;70.07;;;35.75;;
24145;SDS011;12308;50.948;4.706;2022-09-24T04:57:15;61.20;;;34.83;;
24145;SDS011;12308;50.948;4.706;2022-09-24T04:59:41;65.28;;;34.92;;
24145;SDS011;12308;50.948;4.706;2022-09-24T05:02:08;66.93;;;35.58;;
24145;SDS011;12308;50.948;4.706;2022-09-24T05:04:35;69.93;;;36.33;;
24145;SDS011;12308;50.948;4.706;2022-09-24T05:07:01;66.13;;;34.95;;
24145;SDS011;12308;50.948;4.706;2022-09-24T05:09:27;62.83;;;34.40;;
24145;SDS011;12308;50.948;4.706;2022-09-24T05:11:56;66.25;;;34.17;;
24145;SDS011;12308;50.948;4.706;2022-09-24T05:14:22;72.40;;;35.00;;
24145;SDS011;12308;50.948;4.706;2022-09-24T05:16:48;67.00;;;34.65;;
24145;SDS011;12308;50.948;4.706;2022-09-24T05:19:14;69.07;;;35.63;;
24145;SDS011;12308;50.948;4.706;2022-09-24T05:21:40;70.00;;;37.53;;
24145;SDS011;12308;50.948;4.706;2022-09-24T05:24:06;70.05;;;36.50;;
24145;SDS011;12308;50.948;4.706;2022-09-24T05:26:31;73.65;;;36.53;;
24145;SDS011;12308;50.948;4.706;2022-09-24T05:29:16;75.07;;;37.38;;
24145;SDS011;12308;50.948;4.706;2022-09-24T05:31:42;72.68;;;36.88;;
24145;SDS011;12308;50.948;4.706;2022-09-24T05:34:08;70.10;;;38.00;;
24145;SDS011;12308;50.948;4.706;2022-09-24T05:36:33;75.47;;;38.28;;
24145;SDS011;12308;50.948;4.706;2022-09-24T05:39:00;74.68;;;38.83;;
24145;SDS011;12308;50.948;4.706;2022-09-24T05:41:25;77.85;;;38.65;;
24145;SDS011;12308;50.948;4.706;2022-09-24T05:43:51;74.35;;;38.40;;
24145;SDS011;12308;50.948;4.706;2022-09-24T05:46:17;79.72;;;39.75;;
24145;SDS011;12308;50.948;4.706;2022-09-24T05:48:42;78.90;;;40.55;;
24145;SDS011;12308;50.948;4.706;2022-09-24T05:51:08;83.00;;;38.38;;
24145;SDS011;12308;50.948;4.706;2022-09-24T05:53:34;81.43;;;40.15;;
24145;SDS011;12308;50.948;4.706;2022-09-24T05:55:59;76.45;;;38.47;;
24145;SDS011;12308;50.948;4.706;2022-09-24T05:58:25;79.47;;;39.88;;
24145;SDS011;12308;50.948;4.706;2022-09-24T06:00:51;84.10;;;40.10;;
24145;SDS011;12308;50.948;4.706;2022-09-24T06:03:17;83.47;;;39.15;;
24145;SDS011;12308;50.948;4.706;2022-09-24T06:05:44;77.60;;;39.88;;
24145;SDS011;12308;50.948;4.706;2022-09-24T06:08:11;88.15;;;40.63;;
24145;SDS011;12308;50.948;4.706;2022-09-24T06:10:39;83.97;;;40.60;;
24145;SDS011;12308;50.948;4.706;2022-09-24T06:13:06;84.65;;;37.95;;
24145;SDS011;12308;50.948;4.706;2022-09-24T06:15:33;82.43;;;40.17;;
24145;SDS011;12308;50.948;4.706;2022-09-24T06:18:00;81.72;;;39.90;;
24145;SDS011;12308;50.948;4.706;2022-09-24T06:20:25;85.20;;;39.15;;
24145;SDS011;12308;50.948;4.706;2022-09-24T06:22:55;85.85;;;39.10;;
24145;SDS011;12308;50.948;4.706;2022-09-24T06:25:22;88.75;;;39.35;;
24145;SDS011;12308;50.948;4.706;2022-09-24T06:27:52;85.97;;;38.70;;
24145;SDS011;12308;50.948;4.706;2022-09-24T06:30:28;83.28;;;38.38;;
24145;SDS011;12308;50.948;4.706;2022-09-24T06:33:02;85.80;;;39.15;;
24145;SDS011;12308;50.948;4.706;2022-09-24T06:35:36;82.30;;;38.50;;
24145;SDS011;12308;50.948;4.706;2022-09-24T06:38:02;81.93;;;39.05;;
24145;SDS011;12308;50.948;4.706;2022-09-24T06:40:29;78.35;;;37.45;;
24145;SDS011;12308;50.948;4.706;2022-09-24T06:42:55;84.80;;;37.15;;
24145;SDS011;12308;50.948;4.706;2022-09-24T06:45:21;79.53;;;37.70;;
24145;SDS011;12308;50.948;4.706;2022-09-24T06:47:54;76.93;;;36.33;;
24145;SDS011;12308;50.948;4.706;2022-09-24T06:50:21;87.32;;;37.90;;
24145;SDS011;12308;50.948;4.706;2022-09-24T06:52:48;89.07;;;39.38;;
24145;SDS011;12308;50.948;4.706;2022-09-24T06:55:14;83.97;;;36.85;;
24145;SDS011;12308;50.948;4.706;2022-09-24T06:57:40;78.20;;;36.20;;
24145;SDS011;12308;50.948;4.706;2022-09-24T07:00:06;79.30;;;36.28;;
24145;SDS011;12308;50.948;4.706;2022-09-24T07:02:33;78.05;;;37.00;;
24145;SDS011;12308;50.948;4.706;2022-09-24T07:04:58;82.90;;;36.53;;
24145;SDS011;12308;50.948;4.706;2022-09-24T07:07:24;78.22;;;36.38;;
24145;SDS011;12308;50.948;4.706;2022-09-24T07:10:01;86.30;;;37.65;;
24145;SDS011;12308;50.948;4.706;2022-09-24T07:12:28;85.32;;;36.03;;
24145;SDS011;12308;50.948;4.706;2022-09-24T07:14:56;79.68;;;35.80;;
24145;SDS011;12308;50.948;4.706;2022-09-24T07:17:22;81.53;;;36.25;;
24145;SDS011;12308;50.948;4.706;2022-09-24T07:19:49;84.68;;;36.63;;
24145;SDS011;12308;50.948;4.706;2022-09-24T07:22:14;78.05;;;36.30;;
24145;SDS011;12308;50.948;4.706;2022-09-24T07:24:40;89.90;;;36.92;;
24145;SDS011;12308;50.948;4.706;2022-09-24T07:27:06;81.00;;;36.33;;
24145;SDS011;12308;50.948;4.706;2022-09-24T07:29:32;76.03;;;34.92;;
24145;SDS011;12308;50.948;4.706;2022-09-24T07:31:58;78.90;;;34.63;;
24145;SDS011;12308;50.948;4.706;2022-09-24T07:34:24;72.00;;;34.25;;
24145;SDS011;12308;50.948;4.706;2022-09-24T07:36:50;75.57;;;34.88;;
24145;SDS011;12308;50.948;4.706;2022-09-24T07:39:16;72.45;;;34.90;;
24145;SDS011;12308;50.948;4.706;2022-09-24T07:41:42;72.60;;;35.10;;
24145;SDS011;12308;50.948;4.706;2022-09-24T07:44:08;79.22;;;34.53;;
24145;SDS011;12308;50.948;4.706;2022-09-24T07:46:34;72.70;;;32.78;;
24145;SDS011;12308;50.948;4.706;2022-09-24T07:48:59;72.97;;;34.47;;
24145;SDS011;12308;50.948;4.706;2022-09-24T07:51:26;71.47;;;33.47;;
24145;SDS011;12308;50.948;4.706;2022-09-24T07:53:55;71.60;;;33.58;;
24145;SDS011;12308;50.948;4.706;2022-09-24T07:56:22;73.45;;;34.50;;
24145;SDS011;12308;50.948;4.706;2022-09-24T07:58:49;77.93;;;33.78;;
24145;SDS011;12308;50.948;4.706;2022-09-24T08:01:16;132.32;;;78.88;;
24145;SDS011;12308;50.948;4.706;2022-09-24T08:03:43;145.95;;;72.35;;
24145;SDS011;12308;50.948;4.706;2022-09-24T08:06:10;103.07;;;48.33;;
24145;SDS011;12308;50.948;4.706;2022-09-24T08:08:36;95.80;;;44.42;;
24145;SDS011;12308;50.948;4.706;2022-09-24T08:11:06;85.53;;;42.30;;
24145;SDS011;12308;50.948;4.706;2022-09-24T08:13:32;93.40;;;45.28;;
24145;SDS011;12308;50.948;4.706;2022-09-24T08:15:59;93.47;;;43.20;;
24145;SDS011;12308;50.948;4.706;2022-09-24T08:18:26;85.07;;;41.45;;
24145;SDS011;12308;50.948;4.706;2022-09-24T08:20:53;154.43;;;66.72;;
24145;SDS011;12308;50.948;4.706;2022-09-24T08:23:19;134.52;;;57.05;;
24145;SDS011;12308;50.948;4.706;2022-09-24T08:25:48;159.80;;;65.93;;
24145;SDS011;12308;50.948;4.706;2022-09-24T08:28:14;132.88;;;54.33;;
24145;SDS011;12308;50.948;4.706;2022-09-24T08:30:44;107.05;;;52.47;;
24145;SDS011;12308;50.948;4.706;2022-09-24T08:33:10;73.25;;;36.00;;
24145;SDS011;12308;50.948;4.706;2022-09-24T08:35:36;70.07;;;33.22;;
24145;SDS011;12308;50.948;4.706;2022-09-24T08:38:05;68.18;;;32.83;;
24145;SDS011;12308;50.948;4.706;2022-09-24T08:40:35;65.85;;;34.75;;
24145;SDS011;12308;50.948;4.706;2022-09-24T08:43:29;66.53;;;34.60;;
24145;SDS011;12308;50.948;4.706;2022-09-24T08:45:54;64.95;;;33.15;;
24145;SDS011;12308;50.948;4.706;2022-09-24T08:48:42;67.07;;;32.83;;
24145;SDS011;12308;50.948;4.706;2022-09-24T08:51:12;64.10;;;32.88;;
24145;SDS011;12308;50.948;4.706;2022-09-24T08:56:24;62.38;;;31.92;;
24145;SDS011;12308;50.948;4.706;2022-09-24T09:04:28;58.58;;;30.73;;
24145;SDS011;12308;50.948;4.706;2022-09-24T09:07:34;61.47;;;29.80;;
24145;SDS011;12308;50.948;4.706;2022-09-24T09:10:19;60.90;;;30.17;;
24145;SDS011;12308;50.948;4.706;2022-09-24T09:12:54;52.33;;;29.23;;
24145;SDS011;12308;50.948;4.706;2022-09-24T09:15:40;58.33;;;30.63;;
24145;SDS011;12308;50.948;4.706;2022-09-24T09:23:51;53.63;;;29.45;;
24145;SDS011;12308;50.948;4.706;2022-09-24T09:26:20;53.28;;;29.35;;
24145;SDS011;12308;50.948;4.706;2022-09-24T09:28:46;55.85;;;28.95;;
24145;SDS011;12308;50.948;4.706;2022-09-24T09:42:49;54.47;;;28.30;;
24145;SDS011;12308;50.948;4.706;2022-09-24T09:47:59;50.53;;;27.08;;
24145;SDS011;12308;50.948;4.706;2022-09-24T09:50:29;45.20;;;26.75;;
24145;SDS011;12308;50.948;4.706;2022-09-24T09:53:16;51.25;;;26.17;;
24145;SDS011;12308;50.948;4.706;2022-09-24T09:55:53;51.20;;;26.05;;
24145;SDS011;12308;50.948;4.706;2022-09-24T09:58:22;56.53;;;27.17;;
24145;SDS011;12308;50.948;4.706;2022-09-24T10:00:50;49.65;;;26.23;;
24145;SDS011;12308;50.948;4.706;2022-09-24T10:06:28;51.08;;;25.67;;
24145;SDS011;12308;50.948;4.706;2022-09-24T10:09:12;50.22;;;25.40;;
24145;SDS011;12308;50.948;4.706;2022-09-24T10:11:41;47.92;;;25.35;;
24145;SDS011;12308;50.948;4.706;2022-09-24T10:14:10;51.60;;;27.58;;
24145;SDS011;12308;50.948;4.706;2022-09-24T10:16:42;50.22;;;26.08;;
24145;SDS011;12308;50.948;4.706;2022-09-24T10:19:32;42.13;;;25.15;;
24145;SDS011;12308;50.948;4.706;2022-09-24T10:22:05;49.53;;;25.48;;
24145;SDS011;12308;50.948;4.706;2022-09-24T10:24:45;43.67;;;25.88;;
24145;SDS011;12308;50.948;4.706;2022-09-24T10:27:11;48.47;;;26.13;;
24145;SDS011;12308;50.948;4.706;2022-09-24T10:29:38;49.22;;;24.73;;
24145;SDS011;12308;50.948;4.706;2022-09-24T10:32:24;49.92;;;26.17;;
24145;SDS011;12308;50.948;4.706;2022-09-24T10:34:56;47.67;;;25.20;;
24145;SDS011;12308;50.948;4.706;2022-09-24T10:37:29;52.88;;;26.30;;
24145;SDS011;12308;50.948;4.706;2022-09-24T10:39:59;49.92;;;25.77;;
24145;SDS011;12308;50.948;4.706;2022-09-24T10:42:27;51.90;;;25.65;;
24145;SDS011;12308;50.948;4.706;2022-09-24T10:44:54;43.40;;;23.85;;
24145;SDS011;12308;50.948;4.706;2022-09-24T10:47:36;42.85;;;22.85;;
24145;SDS011;12308;50.948;4.706;2022-09-24T10:53:05;38.55;;;22.15;;
24145;SDS011;12308;50.948;4.706;2022-09-24T11:01:08;38.05;;;21.38;;
24145;SDS011;12308;50.948;4.706;2022-09-24T11:03:52;38.35;;;20.85;;
24145;SDS011;12308;50.948;4.706;2022-09-24T11:12:12;44.72;;;22.90;;
24145;SDS011;12308;50.948;4.706;2022-09-24T11:18:13;36.55;;;20.60;;
24145;SDS011;12308;50.948;4.706;2022-09-24T11:20:38;34.93;;;20.27;;
24145;SDS011;12308;50.948;4.706;2022-09-24T11:32:16;42.10;;;19.48;;
24145;SDS011;12308;50.948;4.706;2022-09-24T11:53:27;45.97;;;21.98;;
24145;SDS011;12308;50.948;4.706;2022-09-24T11:55:57;43.55;;;22.33;;
24145;SDS011;12308;50.948;4.706;2022-09-24T11:58:33;49.10;;;22.55;;
24145;SDS011;12308;50.948;4.706;2022-09-24T12:01:11;43.80;;;21.90;;
24145;SDS011;12308;50.948;4.706;2022-09-24T12:03:57;42.25;;;22.05;;
24145;SDS011;12308;50.948;4.706;2022-09-24T12:06:32;44.38;;;22.02;;
24145;SDS011;12308;50.948;4.706;2022-09-24T12:09:20;50.38;;;22.83;;
24145;SDS011;12308;50.948;4.706;2022-09-24T12:20:38;40.53;;;23.92;;
24145;SDS011;12308;50.948;4.706;2022-09-24T12:23:18;38.50;;;20.65;;
24145;SDS011;12308;50.948;4.706;2022-09-24T12:25:48;39.35;;;21.20;;
24145;SDS011;12308;50.948;4.706;2022-09-24T12:28:18;40.38;;;20.95;;
24145;SDS011;12308;50.948;4.706;2022-09-24T12:31:03;36.15;;;20.75;;
24145;SDS011;12308;50.948;4.706;2022-09-24T12:34:07;38.58;;;18.92;;
24145;SDS011;12308;50.948;4.706;2022-09-24T12:36:45;30.58;;;19.08;;
24145;SDS011;12308;50.948;4.706;2022-09-24T12:39:21;31.73;;;16.98;;
24145;SDS011;12308;50.948;4.706;2022-09-24T12:41:54;37.58;;;17.17;;
24145;SDS011;12308;50.948;4.706;2022-09-24T12:44:29;28.55;;;17.75;;
24145;SDS011;12308;50.948;4.706;2022-09-24T12:47:03;35.58;;;16.58;;
24145;SDS011;12308;50.948;4.706;2022-09-24T12:49:38;31.35;;;16.85;;
24145;SDS011;12308;50.948;4.706;2022-09-24T12:54:52;28.85;;;16.75;;
24145;SDS011;12308;50.948;4.706;2022-09-24T12:57:23;28.50;;;14.75;;
24145;SDS011;12308;50.948;4.706;2022-09-24T13:07:41;24.52;;;15.00;;
24145;SDS011;12308;50.948;4.706;2022-09-24T13:12:46;31.85;;;17.80;;
24145;SDS011;12308;50.948;4.706;2022-09-24T13:15:23;28.25;;;18.10;;
24145;SDS011;12308;50.948;4.706;2022-09-24T13:18:03;30.25;;;17.85;;
24145;SDS011;12308;50.948;4.706;2022-09-24T13:20:40;32.85;;;19.30;;
24145;SDS011;12308;50.948;4.706;2022-09-24T13:23:11;29.38;;;18.40;;
24145;SDS011;12308;50.948;4.706;2022-09-24T13:25:59;35.85;;;18.45;;
24145;SDS011;12308;50.948;4.706;2022-09-24T13:28:36;31.35;;;17.13;;
24145;SDS011;12308;50.948;4.706;2022-09-24T13:31:30;31.70;;;17.92;;
24145;SDS011;12308;50.948;4.706;2022-09-24T13:36:37;30.02;;;17.67;;
24145;SDS011;12308;50.948;4.706;2022-09-24T13:47:00;27.15;;;16.30;;
24145;SDS011;12308;50.948;4.706;2022-09-24T13:49:40;34.55;;;16.70;;
24145;SDS011;12308;50.948;4.706;2022-09-24T13:52:57;30.73;;;16.90;;
24145;SDS011;12308;50.948;4.706;2022-09-24T13:55:01;35.38;;;16.95;;
24145;SDS011;12308;50.948;4.706;2022-09-24T13:57:43;29.00;;;16.70;;
24145;SDS011;12308;50.948;4.706;2022-09-24T14:02:36;27.25;;;15.95;;
24145;SDS011;12308;50.948;4.706;2022-09-24T14:05:02;30.38;;;16.80;;
24145;SDS011;12308;50.948;4.706;2022-09-24T14:07:33;26.25;;;15.85;;
24145;SDS011;12308;50.948;4.706;2022-09-24T14:10:03;25.25;;;15.88;;
24145;SDS011;12308;50.948;4.706;2022-09-24T14:12:32;25.42;;;15.32;;
24145;SDS011;12308;50.948;4.706;2022-09-24T14:14:57;31.90;;;16.92;;
24145;SDS011;12308;50.948;4.706;2022-09-24T14:17:24;24.08;;;15.55;;
24145;SDS011;12308;50.948;4.706;2022-09-24T14:19:56;29.58;;;16.20;;
24145;SDS011;12308;50.948;4.706;2022-09-24T14:22:26;28.95;;;16.55;;
24145;SDS011;12308;50.948;4.706;2022-09-24T14:24:58;33.60;;;17.10;;
24145;SDS011;12308;50.948;4.706;2022-09-24T14:27:41;29.60;;;16.73;;
24145;SDS011;12308;50.948;4.706;2022-09-24T14:32:52;27.40;;;16.05;;
24145;SDS011;12308;50.948;4.706;2022-09-24T14:35:31;31.45;;;18.13;;
24145;SDS011;12308;50.948;4.706;2022-09-24T14:40:51;27.30;;;17.23;;
24145;SDS011;12308;50.948;4.706;2022-09-24T14:46:05;29.25;;;16.63;;
24145;SDS011;12308;50.948;4.706;2022-09-24T14:48:38;30.23;;;18.05;;
24145;SDS011;12308;50.948;4.706;2022-09-24T14:51:19;30.35;;;18.23;;
24145;SDS011;12308;50.948;4.706;2022-09-24T14:54:22;30.80;;;18.55;;
24145;SDS011;12308;50.948;4.706;2022-09-24T14:56:47;29.58;;;16.92;;
24145;SDS011;12308;50.948;4.706;2022-09-24T14:59:14;31.80;;;17.75;;
24145;SDS011;12308;50.948;4.706;2022-09-24T15:01:50;34.65;;;19.05;;
24145;SDS011;12308;50.948;4.706;2022-09-24T15:04:39;35.30;;;18.45;;
24145;SDS011;12308;50.948;4.706;2022-09-24T15:07:43;29.73;;;19.10;;
24145;SDS011;12308;50.948;4.706;2022-09-24T15:10:02;33.22;;;20.20;;
24145;SDS011;12308;50.948;4.706;2022-09-24T15:17:27;35.63;;;20.85;;
24145;SDS011;12308;50.948;4.706;2022-09-24T15:19:57;32.53;;;19.25;;
24145;SDS011;12308;50.948;4.706;2022-09-24T15:22:24;35.10;;;20.10;;
24145;SDS011;12308;50.948;4.706;2022-09-24T15:24:51;37.30;;;21.77;;
24145;SDS011;12308;50.948;4.706;2022-09-24T15:27:22;34.55;;;21.50;;
24145;SDS011;12308;50.948;4.706;2022-09-24T15:29:54;39.85;;;22.67;;
24145;SDS011;12308;50.948;4.706;2022-09-24T15:32:23;37.40;;;24.10;;
24145;SDS011;12308;50.948;4.706;2022-09-24T15:34:50;41.30;;;23.50;;
24145;SDS011;12308;50.948;4.706;2022-09-24T15:37:18;42.10;;;24.02;;
24145;SDS011;12308;50.948;4.706;2022-09-24T15:39:46;39.92;;;23.38;;
24145;SDS011;12308;50.948;4.706;2022-09-24T15:42:16;40.08;;;24.20;;
24145;SDS011;12308;50.948;4.706;2022-09-24T15:44:49;43.70;;;24.05;;
24145;SDS011;12308;50.948;4.706;2022-09-24T15:47:15;40.08;;;24.42;;
24145;SDS011;12308;50.948;4.706;2022-09-24T15:49:41;44.25;;;25.83;;
24145;SDS011;12308;50.948;4.706;2022-09-24T15:54:53;49.40;;;25.42;;
24145;SDS011;12308;50.948;4.706;2022-09-24T15:57:21;42.97;;;25.95;;
24145;SDS011;12308;50.948;4.706;2022-09-24T15:59:48;39.28;;;25.80;;
24145;SDS011;12308;50.948;4.706;2022-09-24T16:02:19;37.00;;;23.13;;
24145;SDS011;12308;50.948;4.706;2022-09-24T16:04:47;39.00;;;24.27;;
24145;SDS011;12308;50.948;4.706;2022-09-24T16:07:13;41.13;;;23.52;;
24145;SDS011;12308;50.948;4.706;2022-09-24T16:09:38;34.22;;;22.92;;
24145;SDS011;12308;50.948;4.706;2022-09-24T16:12:04;36.85;;;20.90;;
24145;SDS011;12308;50.948;4.706;2022-09-24T16:14:30;32.60;;;20.33;;
24145;SDS011;12308;50.948;4.706;2022-09-24T16:16:56;26.88;;;18.40;;
24145;SDS011;12308;50.948;4.706;2022-09-24T16:19:22;27.38;;;18.85;;
24145;SDS011;12308;50.948;4.706;2022-09-24T16:21:48;30.33;;;19.52;;
24145;SDS011;12308;50.948;4.706;2022-09-24T16:24:15;27.25;;;17.60;;
24145;SDS011;12308;50.948;4.706;2022-09-24T16:26:42;26.50;;;17.60;;
24145;SDS011;12308;50.948;4.706;2022-09-24T16:29:08;31.17;;;20.08;;
24145;SDS011;12308;50.948;4.706;2022-09-24T16:31:36;34.00;;;20.55;;
24145;SDS011;12308;50.948;4.706;2022-09-24T16:34:02;38.42;;;21.92;;
24145;SDS011;12308;50.948;4.706;2022-09-24T16:36:28;38.40;;;23.75;;
24145;SDS011;12308;50.948;4.706;2022-09-24T16:38:54;32.40;;;21.45;;
24145;SDS011;12308;50.948;4.706;2022-09-24T16:41:21;31.65;;;21.45;;
24145;SDS011;12308;50.948;4.706;2022-09-24T16:43:47;32.88;;;20.98;;
24145;SDS011;12308;50.948;4.706;2022-09-24T16:46:12;33.67;;;20.70;;
24145;SDS011;12308;50.948;4.706;2022-09-24T16:48:38;35.75;;;20.80;;
24145;SDS011;12308;50.948;4.706;2022-09-24T16:51:05;33.17;;;21.30;;
24145;SDS011;12308;50.948;4.706;2022-09-24T16:53:33;33.40;;;22.13;;
24145;SDS011;12308;50.948;4.706;2022-09-24T16:56:07;33.13;;;21.45;;
24145;SDS011;12308;50.948;4.706;2022-09-24T16:58:35;34.00;;;22.00;;
24145;SDS011;12308;50.948;4.706;2022-09-24T17:01:05;37.33;;;22.60;;
24145;SDS011;12308;50.948;4.706;2022-09-24T17:03:31;44.47;;;24.48;;
24145;SDS011;12308;50.948;4.706;2022-09-24T17:05:58;37.58;;;23.67;;